createdAt,value
2023-01-21T00:01:49.118Z,11.02
2023-01-21T00:04:17.018Z,12.57
2023-01-21T00:06:47.755Z,14.23
2023-01-21T00:09:20.999Z,13.95
2023-01-21T00:11:51.149Z,12.88
2023-01-21T00:14:25.740Z,11.27
2023-01-21T00:16:58.232Z,13.73
2023-01-21T00:19:32.301Z,11.82
2023-01-21T00:22:00.273Z,10.52
2023-01-21T00:24:30.373Z,10.93
2023-01-21T00:26:57.876Z,14.15
2023-01-21T00:29:26.368Z,10.73
2023-01-21T00:31:53.936Z,11.30
2023-01-21T00:34:22.747Z,14.00
2023-01-21T00:36:50.273Z,16.02
2023-01-21T00:39:17.773Z,14.15
2023-01-21T00:41:45.270Z,15.80
2023-01-21T00:44:12.818Z,15.88
2023-01-21T00:46:40.425Z,18.17
2023-01-21T00:49:07.965Z,22.80
2023-01-21T00:51:36.811Z,25.27
2023-01-21T00:54:04.484Z,30.80
2023-01-21T00:56:31.987Z,25.65
2023-01-21T00:58:59.568Z,27.92
2023-01-21T01:01:30.330Z,27.98
2023-01-21T01:03:57.807Z,29.02
2023-01-21T01:06:25.300Z,33.45
2023-01-21T01:08:57.789Z,32.17
2023-01-21T01:11:26.779Z,23.33
2023-01-21T01:13:54.804Z,20.27
2023-01-21T01:16:23.253Z,16.65
2023-01-21T01:18:52.537Z,23.73
2023-01-21T01:21:22.187Z,21.92
2023-01-21T01:23:52.105Z,15.98
2023-01-21T01:26:22.395Z,15.38
2023-01-21T01:28:49.998Z,21.50
2023-01-21T01:31:19.112Z,19.30
2023-01-21T01:33:47.115Z,20.17
2023-01-21T01:36:16.129Z,16.10
2023-01-21T01:38:44.245Z,16.02
2023-01-21T01:41:16.104Z,16.48
2023-01-21T01:43:54.598Z,16.00
2023-01-21T01:46:23.513Z,12.82
2023-01-21T01:48:56.013Z,12.95
2023-01-21T01:51:34.285Z,11.90
2023-01-21T01:54:02.176Z,7.05
2023-01-21T01:56:31.277Z,8.40
2023-01-21T01:59:00.154Z,8.25
2023-01-21T02:01:28.144Z,9.95
2023-01-21T02:03:59.462Z,7.97
2023-01-21T02:06:28.110Z,8.00
2023-01-21T02:08:57.255Z,8.32
2023-01-21T02:11:25.226Z,6.28
2023-01-21T02:13:55.822Z,8.20
2023-01-21T02:16:50.149Z,6.60
2023-01-21T02:19:45.573Z,8.07
2023-01-21T02:22:21.904Z,10.35
2023-01-21T02:25:16.859Z,7.80
2023-01-21T02:27:50.467Z,12.50
2023-01-21T02:30:42.394Z,12.52
2023-01-21T02:33:40.685Z,11.80
2023-01-21T02:36:18.538Z,10.65
2023-01-21T02:38:54.733Z,10.27
2023-01-21T02:41:30.716Z,10.55
2023-01-21T02:44:08.036Z,11.77
2023-01-21T02:46:42.713Z,16.35
2023-01-21T02:49:19.340Z,15.43
2023-01-21T02:51:47.943Z,17.40
2023-01-21T02:54:17.674Z,19.70
2023-01-21T02:56:45.766Z,14.50
2023-01-21T02:59:13.996Z,16.73
2023-01-21T03:01:53.833Z,15.63
2023-01-21T03:04:49.365Z,16.33
2023-01-21T03:07:25.568Z,15.45
2023-01-21T03:09:55.795Z,18.20
2023-01-21T03:12:31.773Z,19.80
2023-01-21T03:15:22.447Z,22.40
2023-01-21T03:17:54.520Z,21.10
2023-01-21T03:20:27.263Z,16.25
2023-01-21T03:25:28.334Z,19.08
2023-01-21T03:27:57.527Z,16.98
2023-01-21T03:30:26.727Z,17.60
2023-01-21T03:32:56.611Z,18.50
2023-01-21T03:35:29.657Z,18.45
2023-01-21T03:38:01.793Z,17.42
2023-01-21T03:40:33.867Z,12.88
2023-01-21T03:43:01.950Z,13.48
2023-01-21T03:45:36.264Z,14.30
2023-01-21T03:48:12.661Z,10.90
2023-01-21T03:50:46.853Z,12.85
2023-01-21T03:53:14.405Z,15.07
2023-01-21T03:55:41.915Z,13.57
2023-01-21T03:58:09.408Z,15.63
2023-01-21T04:00:36.947Z,15.90
2023-01-21T04:03:04.533Z,20.15
2023-01-21T04:05:32.037Z,14.27
2023-01-21T04:08:00.846Z,12.85
2023-01-21T04:10:28.330Z,13.50
2023-01-21T04:12:55.818Z,12.57
2023-01-21T04:15:23.293Z,10.90
2023-01-21T04:17:50.812Z,14.55
2023-01-21T04:20:19.783Z,16.35
2023-01-21T04:22:47.290Z,17.70
2023-01-21T04:25:16.164Z,20.48
2023-01-21T04:27:44.710Z,21.05
2023-01-21T04:30:12.554Z,24.13
2023-01-21T04:32:40.068Z,23.60
2023-01-21T04:35:08.527Z,23.23
2023-01-21T04:37:36.009Z,25.83
2023-01-21T04:40:03.559Z,22.83
2023-01-21T04:42:32.365Z,26.55
2023-01-21T04:44:59.847Z,21.63
2023-01-21T04:47:27.358Z,22.55
2023-01-21T04:49:54.845Z,34.17
2023-01-21T04:52:22.359Z,25.75
2023-01-21T04:54:49.842Z,26.20
2023-01-21T04:57:17.378Z,27.73
2023-01-21T04:59:46.191Z,30.83
2023-01-21T05:02:14.005Z,23.27
2023-01-21T05:04:41.514Z,29.88
2023-01-21T05:07:09.169Z,29.98
2023-01-21T05:09:36.639Z,30.77
2023-01-21T05:12:04.343Z,26.95
2023-01-21T05:14:31.810Z,25.17
2023-01-21T05:17:00.800Z,31.17
2023-01-21T05:19:28.332Z,29.20
2023-01-21T05:21:55.787Z,28.45
2023-01-21T05:24:23.306Z,27.73
2023-01-21T05:26:50.830Z,30.13
2023-01-21T05:29:18.402Z,32.42
2023-01-21T05:31:46.026Z,28.45
2023-01-21T05:34:14.913Z,26.95
2023-01-21T05:36:42.447Z,35.45
2023-01-21T05:39:10.013Z,33.40
2023-01-21T05:41:37.534Z,31.05
2023-01-21T05:44:05.116Z,31.38
2023-01-21T05:46:32.623Z,32.90
2023-01-21T05:49:00.159Z,32.35
2023-01-21T05:51:29.024Z,28.83
2023-01-21T05:53:56.521Z,29.45
2023-01-21T05:56:24.094Z,32.25
2023-01-21T05:58:51.593Z,32.08
2023-01-21T06:01:19.241Z,28.85
2023-01-21T06:03:46.745Z,28.35
2023-01-21T06:06:14.344Z,31.50
2023-01-21T06:08:43.277Z,31.83
2023-01-21T06:11:10.752Z,26.48
2023-01-21T06:13:38.248Z,30.30
2023-01-21T06:16:06.402Z,38.85
2023-01-21T06:18:33.936Z,32.17
2023-01-21T06:21:01.691Z,37.03
2023-01-21T06:23:29.648Z,36.15
2023-01-21T06:26:01.553Z,37.20
2023-01-21T06:28:30.176Z,40.58
2023-01-21T06:30:57.851Z,39.08
2023-01-21T06:33:25.388Z,44.75
2023-01-21T06:35:52.876Z,36.20
2023-01-21T06:38:20.344Z,38.58
2023-01-21T06:40:47.801Z,39.70
2023-01-21T06:43:16.607Z,38.63
2023-01-21T06:45:44.240Z,43.50
2023-01-21T06:48:11.747Z,42.33
2023-01-21T06:50:39.244Z,39.80
2023-01-21T06:53:06.751Z,34.72
2023-01-21T06:55:34.213Z,40.67
2023-01-21T06:58:01.711Z,34.53
2023-01-21T07:00:30.996Z,43.83
2023-01-21T07:02:59.148Z,36.65
2023-01-21T07:05:27.529Z,35.42
2023-01-21T07:07:55.486Z,35.63
2023-01-21T07:10:23.073Z,37.78
2023-01-21T07:12:50.714Z,38.70
2023-01-21T07:15:18.853Z,39.67
2023-01-21T07:17:48.000Z,37.80
2023-01-21T07:20:15.809Z,37.97
2023-01-21T07:22:43.293Z,43.88
2023-01-21T07:25:11.132Z,47.88
2023-01-21T07:27:38.807Z,42.03
2023-01-21T07:30:07.527Z,46.15
2023-01-21T07:32:35.025Z,41.95
2023-01-21T07:35:03.852Z,37.83
2023-01-21T07:37:31.549Z,42.22
2023-01-21T07:39:59.110Z,38.15
2023-01-21T07:42:26.710Z,39.40
2023-01-21T07:44:54.210Z,38.55
2023-01-21T07:47:21.687Z,46.53
2023-01-21T07:49:49.885Z,38.58
2023-01-21T07:52:18.759Z,43.08
2023-01-21T07:54:46.213Z,39.05
2023-01-21T07:57:14.527Z,37.40
2023-01-21T07:59:42.121Z,36.90
2023-01-21T08:02:11.190Z,37.05
2023-01-21T08:04:38.736Z,38.30
2023-01-21T08:07:11.915Z,35.60
2023-01-21T08:09:41.741Z,37.78
2023-01-21T08:12:10.565Z,42.78
2023-01-21T08:14:38.696Z,39.80
2023-01-21T08:17:06.193Z,38.97
2023-01-21T08:19:33.701Z,40.67
2023-01-21T08:22:01.188Z,39.22
2023-01-21T08:24:28.770Z,35.65
2023-01-21T08:27:00.265Z,35.55
2023-01-21T08:29:28.517Z,44.70
2023-01-21T08:31:56.127Z,34.92
2023-01-21T08:34:23.704Z,35.70
2023-01-21T08:36:51.192Z,35.13
2023-01-21T08:39:18.836Z,37.95
2023-01-21T08:41:46.385Z,41.75
2023-01-21T08:44:15.225Z,38.33
2023-01-21T08:46:42.699Z,34.00
2023-01-21T08:49:10.209Z,33.33
2023-01-21T08:51:37.682Z,36.95
2023-01-21T08:54:05.518Z,34.72
2023-01-21T08:56:33.082Z,40.78
2023-01-21T08:59:02.433Z,36.03
2023-01-21T09:01:31.299Z,32.92
2023-01-21T09:04:00.206Z,35.15
2023-01-21T09:06:29.735Z,30.58
2023-01-21T09:08:58.361Z,34.83
2023-01-21T09:11:26.353Z,36.15
2023-01-21T09:13:53.966Z,37.53
2023-01-21T09:16:23.745Z,35.38
2023-01-21T09:18:52.609Z,38.83
2023-01-21T09:21:20.289Z,35.08
2023-01-21T09:23:47.795Z,35.35
2023-01-21T09:26:17.375Z,37.28
2023-01-21T09:28:46.338Z,36.67
2023-01-21T09:31:16.394Z,34.15
2023-01-21T09:33:47.719Z,34.05
2023-01-21T09:36:19.059Z,30.10
2023-01-21T09:38:48.321Z,33.85
2023-01-21T09:41:28.439Z,34.45
2023-01-21T09:44:03.664Z,31.73
2023-01-21T09:46:37.076Z,33.42
2023-01-21T09:49:07.819Z,33.67
2023-01-21T09:51:45.976Z,35.45
2023-01-21T09:54:20.233Z,34.78
2023-01-21T09:57:02.745Z,30.90
2023-01-21T09:59:44.100Z,28.20
2023-01-21T10:02:22.575Z,31.00
2023-01-21T10:05:00.828Z,31.95
2023-01-21T10:07:35.081Z,32.08
2023-01-21T10:10:14.971Z,25.75
2023-01-21T10:12:59.961Z,31.52
2023-01-21T10:15:51.015Z,27.85
2023-01-21T10:18:23.555Z,27.00
2023-01-21T10:20:55.500Z,30.08
2023-01-21T10:23:28.286Z,31.60
2023-01-21T10:28:26.609Z,33.05
2023-01-21T10:30:55.890Z,30.13
2023-01-21T10:33:25.539Z,29.08
2023-01-21T10:36:20.419Z,27.95
2023-01-21T10:38:57.098Z,31.23
2023-01-21T10:41:45.100Z,28.17
2023-01-21T10:44:23.702Z,29.02
2023-01-21T10:46:58.997Z,32.65
2023-01-21T10:49:35.174Z,30.58
2023-01-21T10:52:07.227Z,27.00
2023-01-21T10:54:47.848Z,24.45
2023-01-21T10:57:33.007Z,27.15
2023-01-21T11:00:02.743Z,30.48
2023-01-21T11:02:32.361Z,27.25
2023-01-21T11:05:03.124Z,28.08
2023-01-21T11:07:35.824Z,26.23
2023-01-21T11:10:06.890Z,23.50
2023-01-21T11:12:34.545Z,22.88
2023-01-21T11:15:08.504Z,24.13
2023-01-21T11:17:37.999Z,27.27
2023-01-21T11:20:16.417Z,25.38
2023-01-21T11:22:46.210Z,24.63
2023-01-21T11:25:27.087Z,26.13
2023-01-21T11:27:54.752Z,24.15
2023-01-21T11:30:50.031Z,28.35
2023-01-21T11:33:26.461Z,30.38
2023-01-21T11:35:55.767Z,27.00
2023-01-21T11:38:41.449Z,25.30
2023-01-21T11:41:19.231Z,28.08
2023-01-21T11:43:48.428Z,26.75
2023-01-21T11:46:27.535Z,24.55
2023-01-21T11:48:56.717Z,23.58
2023-01-21T11:51:24.363Z,25.85
2023-01-21T11:54:13.042Z,29.38
2023-01-21T11:56:44.194Z,30.30
2023-01-21T11:59:19.608Z,25.50
2023-01-21T12:01:53.520Z,23.13
2023-01-21T12:04:21.099Z,25.55
2023-01-21T12:06:51.631Z,24.77
2023-01-21T12:09:21.067Z,25.13
2023-01-21T12:12:09.571Z,24.85
2023-01-21T12:14:45.921Z,26.42
2023-01-21T12:17:21.988Z,23.08
2023-01-21T12:20:01.797Z,22.70
2023-01-21T12:22:43.488Z,22.75
2023-01-21T12:25:22.511Z,20.48
2023-01-21T12:28:04.019Z,20.77
2023-01-21T12:30:45.908Z,22.17
2023-01-21T12:33:19.720Z,21.40
2023-01-21T12:35:57.718Z,21.08
2023-01-21T12:38:31.493Z,21.17
2023-01-21T12:41:07.970Z,21.63
2023-01-21T12:43:45.550Z,17.23
2023-01-21T12:46:20.222Z,16.98
2023-01-21T12:48:54.067Z,18.10
2023-01-21T12:51:29.923Z,18.10
2023-01-21T12:54:06.672Z,17.73
2023-01-21T12:56:59.388Z,18.27
2023-01-21T12:59:36.718Z,18.70
2023-01-21T13:02:21.798Z,19.98
2023-01-21T13:05:01.587Z,18.13
2023-01-21T13:07:44.449Z,20.55
2023-01-21T13:10:19.188Z,19.50
2023-01-21T13:12:58.644Z,19.35
2023-01-21T13:15:38.072Z,16.05
2023-01-21T13:18:15.155Z,17.13
2023-01-21T13:20:56.705Z,16.77
2023-01-21T13:23:36.545Z,18.35
2023-01-21T13:26:15.017Z,18.48
2023-01-21T13:28:54.876Z,17.35
2023-01-21T13:31:39.024Z,16.75
2023-01-21T13:34:22.656Z,19.83
2023-01-21T13:37:10.343Z,15.20
2023-01-21T13:39:52.413Z,14.98
2023-01-21T13:42:43.338Z,16.43
2023-01-21T13:45:38.143Z,16.65
2023-01-21T13:48:27.396Z,15.73
2023-01-21T13:51:15.214Z,14.80
2023-01-21T13:54:04.224Z,16.35
2023-01-21T13:56:52.077Z,11.32
2023-01-21T13:59:36.006Z,11.77
2023-01-21T14:02:20.363Z,12.30
2023-01-21T14:04:59.082Z,12.20
2023-01-21T14:07:35.308Z,12.77
2023-01-21T14:10:11.171Z,12.40
2023-01-21T14:13:10.762Z,11.80
2023-01-21T14:15:56.515Z,12.73
2023-01-21T14:18:51.418Z,11.23
2023-01-21T14:21:53.616Z,11.57
2023-01-21T14:24:44.617Z,11.90
2023-01-21T14:27:31.563Z,9.15
2023-01-21T14:30:17.730Z,10.88
2023-01-21T14:32:52.834Z,9.07
2023-01-21T14:35:37.382Z,8.30
2023-01-21T14:38:20.403Z,11.75
2023-01-21T14:46:34.178Z,9.05
2023-01-21T14:49:07.855Z,11.35
2023-01-21T14:51:37.808Z,11.07
2023-01-21T14:54:13.256Z,12.15
2023-01-21T14:56:41.688Z,10.63
2023-01-21T14:59:28.289Z,11.50
2023-01-21T15:02:01.604Z,9.23
2023-01-21T15:04:31.693Z,12.20
2023-01-21T15:07:02.291Z,11.05
2023-01-21T15:09:33.969Z,11.73
2023-01-21T15:12:04.331Z,9.70
2023-01-21T15:14:36.628Z,11.52
2023-01-21T15:17:04.686Z,11.45
2023-01-21T15:19:34.494Z,9.43
2023-01-21T15:22:46.607Z,11.40
2023-01-21T15:25:21.460Z,11.38
2023-01-21T15:28:40.160Z,12.50
2023-01-21T15:31:10.477Z,24.33
2023-01-21T15:33:46.750Z,9.88
2023-01-21T15:36:25.776Z,12.32
2023-01-21T15:38:55.264Z,12.48
2023-01-21T15:41:35.013Z,10.10
2023-01-21T15:44:16.517Z,11.95
2023-01-21T15:46:56.085Z,11.43
2023-01-21T15:49:38.246Z,16.83
2023-01-21T15:52:23.745Z,15.68
2023-01-21T15:54:58.756Z,11.68
2023-01-21T15:57:42.512Z,13.93
2023-01-21T16:00:30.849Z,10.77
2023-01-21T16:03:04.752Z,13.55
2023-01-21T16:05:43.256Z,13.02
2023-01-21T16:08:20.571Z,12.25
2023-01-21T16:10:58.651Z,13.43
2023-01-21T16:13:39.531Z,11.98
2023-01-21T16:16:14.670Z,16.52
2023-01-21T16:18:52.625Z,13.57
2023-01-21T16:21:22.625Z,11.88
2023-01-21T16:23:53.016Z,12.38
2023-01-21T16:26:27.590Z,12.95
2023-01-21T16:28:57.153Z,13.73
2023-01-21T16:31:24.983Z,10.27
2023-01-21T16:33:53.653Z,16.92
2023-01-21T16:36:21.578Z,66.40
2023-01-21T16:38:49.249Z,33.03
2023-01-21T16:41:23.873Z,23.15
2023-01-21T16:43:53.535Z,14.68
2023-01-21T16:46:26.682Z,13.85
2023-01-21T16:49:06.660Z,12.80
2023-01-21T16:51:42.875Z,14.77
2023-01-21T16:54:32.571Z,14.65
2023-01-21T16:57:24.686Z,14.40
2023-01-21T16:59:55.957Z,12.80
2023-01-21T17:02:28.578Z,15.27
2023-01-21T17:04:58.960Z,15.68
2023-01-21T17:07:29.281Z,15.65
2023-01-21T17:10:03.716Z,17.40
2023-01-21T17:12:35.970Z,13.60
2023-01-21T17:15:17.790Z,14.07
2023-01-21T17:17:57.622Z,16.00
2023-01-21T17:20:44.020Z,14.70
2023-01-21T17:23:18.141Z,16.00
2023-01-21T17:25:52.774Z,16.73
2023-01-21T17:28:30.595Z,15.32
2023-01-21T17:31:23.038Z,15.75
2023-01-21T17:34:20.458Z,16.63
2023-01-21T17:36:50.311Z,14.13
2023-01-21T17:39:51.931Z,16.25
2023-01-21T17:42:22.779Z,14.90
2023-01-21T17:44:52.980Z,15.93
2023-01-21T17:47:24.388Z,16.45
2023-01-21T17:49:59.924Z,14.50
2023-01-21T17:52:28.117Z,18.85
2023-01-21T17:55:11.183Z,17.65
2023-01-21T18:00:26.157Z,14.85
2023-01-21T18:02:54.005Z,18.33
2023-01-21T18:05:23.151Z,17.63
2023-01-21T18:07:51.604Z,16.20
2023-01-21T18:10:21.412Z,17.00
2023-01-21T18:12:49.045Z,14.95
2023-01-21T18:15:19.410Z,14.95
2023-01-21T18:17:50.469Z,17.50
2023-01-21T18:20:19.829Z,16.13
2023-01-21T18:22:49.756Z,14.68
2023-01-21T18:25:18.090Z,15.32
2023-01-21T18:27:51.698Z,17.15
2023-01-21T18:30:21.848Z,14.32
2023-01-21T18:32:49.958Z,14.13
2023-01-21T18:35:20.938Z,14.73
2023-01-21T18:37:49.936Z,13.10
2023-01-21T18:40:21.535Z,14.18
2023-01-21T18:42:50.738Z,12.20
2023-01-21T18:45:20.122Z,16.23
2023-01-21T18:47:49.980Z,14.65
2023-01-21T18:50:20.046Z,14.35
2023-01-21T18:52:47.771Z,14.40
2023-01-21T18:55:18.698Z,17.95
2023-01-21T18:57:49.397Z,15.48
2023-01-21T19:00:22.699Z,17.75
2023-01-21T19:02:50.863Z,15.75
2023-01-21T19:05:18.631Z,14.88
2023-01-21T19:07:46.391Z,16.45
2023-01-21T19:10:17.837Z,15.15
2023-01-21T19:12:45.463Z,14.38
2023-01-21T19:15:16.491Z,16.75
2023-01-21T19:17:44.599Z,15.13
2023-01-21T19:20:17.797Z,16.60
2023-01-21T19:22:45.480Z,17.65
2023-01-21T19:25:13.568Z,15.90
2023-01-21T19:27:45.183Z,16.35
2023-01-21T19:30:20.507Z,15.73
2023-01-21T19:32:48.561Z,18.40
2023-01-21T19:35:17.172Z,19.42
2023-01-21T19:37:49.137Z,17.88
2023-01-21T19:40:19.622Z,18.02
2023-01-21T19:42:49.558Z,17.30
2023-01-21T19:45:18.632Z,18.67
2023-01-21T19:47:50.258Z,18.92
2023-01-21T19:50:20.380Z,16.40
2023-01-21T19:52:49.709Z,17.45
2023-01-21T19:55:19.862Z,15.55
2023-01-21T19:57:56.151Z,16.30
2023-01-21T20:00:26.220Z,17.80
2023-01-21T20:02:54.117Z,19.75
2023-01-21T20:05:22.740Z,20.20
2023-01-21T20:07:51.788Z,15.63
2023-01-21T20:10:22.009Z,16.73
2023-01-21T20:12:51.513Z,16.77
2023-01-21T20:15:20.583Z,15.80
2023-01-21T20:17:52.511Z,13.88
2023-01-21T20:20:22.558Z,16.83
2023-01-21T20:22:50.366Z,16.17
2023-01-21T20:25:19.681Z,15.68
2023-01-21T20:27:51.988Z,18.25
2023-01-21T20:30:21.693Z,16.48
2023-01-21T20:32:49.613Z,16.30
2023-01-21T20:35:18.824Z,21.20
2023-01-21T20:37:48.945Z,16.38
2023-01-21T20:40:20.116Z,16.25
2023-01-21T20:42:48.212Z,16.92
2023-01-21T20:45:18.947Z,15.07
2023-01-21T20:47:50.850Z,18.27
2023-01-21T20:50:20.430Z,16.60
2023-01-21T20:52:49.244Z,16.85
2023-01-21T20:55:20.760Z,18.80
2023-01-21T20:57:48.781Z,18.40
2023-01-21T21:00:20.419Z,18.02
2023-01-21T21:02:48.957Z,16.67
2023-01-21T21:05:18.468Z,18.38
2023-01-21T21:07:46.281Z,17.60
2023-01-21T21:10:19.676Z,21.10
2023-01-21T21:12:47.383Z,18.30
2023-01-21T21:15:15.739Z,15.15
2023-01-21T21:17:46.912Z,17.30
2023-01-21T21:20:19.768Z,14.32
2023-01-21T21:25:16.448Z,19.63
2023-01-21T21:27:45.057Z,17.40
2023-01-21T21:30:15.429Z,16.25
2023-01-21T21:32:43.179Z,19.80
2023-01-21T21:35:21.993Z,20.52
2023-01-21T21:37:49.499Z,16.90
2023-01-21T21:40:17.267Z,15.13
2023-01-21T21:43:02.298Z,16.23
2023-01-21T21:45:29.810Z,15.38
2023-01-21T21:48:15.118Z,18.48
2023-01-21T21:50:44.030Z,16.45
2023-01-21T21:53:12.360Z,17.05
2023-01-21T21:55:39.819Z,17.20
2023-01-21T21:58:07.315Z,17.27
2023-01-21T22:00:34.786Z,17.33
2023-01-21T22:03:02.808Z,16.23
2023-01-21T22:05:32.982Z,21.33
2023-01-21T22:08:01.935Z,14.38
2023-01-21T22:10:29.444Z,20.80
2023-01-21T22:12:57.063Z,16.70
2023-01-21T22:15:24.559Z,20.40
2023-01-21T22:17:52.059Z,21.20
2023-01-21T22:20:19.847Z,25.42
2023-01-21T22:22:47.385Z,21.35
2023-01-21T22:25:16.522Z,19.15
2023-01-21T22:27:44.194Z,18.90
2023-01-21T22:30:13.558Z,16.55
2023-01-21T22:32:41.197Z,18.00
2023-01-21T22:35:09.391Z,18.83
2023-01-21T22:37:36.875Z,21.90
2023-01-21T22:40:04.924Z,18.27
2023-01-21T22:42:33.835Z,16.20
2023-01-21T22:45:01.323Z,17.55
2023-01-21T22:47:31.944Z,17.27
2023-01-21T22:49:59.454Z,18.80
2023-01-21T22:52:28.513Z,16.17
2023-01-21T22:54:55.997Z,15.63
2023-01-21T22:57:23.589Z,15.85
2023-01-21T22:59:52.461Z,16.40
2023-01-21T23:02:19.954Z,16.83
2023-01-21T23:04:47.460Z,15.20
2023-01-21T23:07:15.019Z,16.70
2023-01-21T23:09:42.491Z,16.45
2023-01-21T23:12:18.615Z,15.55
2023-01-21T23:14:46.365Z,17.08
2023-01-21T23:17:16.610Z,16.10
2023-01-21T23:19:44.156Z,15.60
2023-01-21T23:22:11.944Z,16.95
2023-01-21T23:24:39.499Z,14.93
2023-01-21T23:27:07.018Z,15.65
2023-01-21T23:29:34.582Z,17.75
2023-01-21T23:32:02.350Z,16.08
2023-01-21T23:34:31.462Z,14.75
2023-01-21T23:36:59.040Z,18.90
2023-01-21T23:39:26.541Z,17.08
2023-01-21T23:41:54.904Z,17.85
2023-01-21T23:44:25.341Z,19.38
2023-01-21T23:46:53.086Z,16.73
2023-01-21T23:49:21.051Z,18.33
2023-01-21T23:51:49.932Z,17.80
2023-01-21T23:54:17.581Z,18.67
2023-01-21T23:56:45.062Z,16.75
2023-01-21T23:59:12.626Z,17.00
